Time;durP1;ratioP1;P1;durP2;ratioP2;P2;SDS_P1;SDS_P2;PMS_P1;PMS_P2;Temp;Humidity;BMP_temperature;BMP_pressure;BME280_temperature;BME280_humidity;BME280_pressure;Samples;Min_cycle;Max_cycle;Signal;HPM_P1;HPM_P2
2021/12/17 00:01:10;;;;;;;11.50;6.05;;;;;;;4.97;88.19;100379.86;1716869;83;22028;-60
2021/12/17 00:03:45;;;;;;;12.55;6.35;;;;;;;4.98;88.12;100373.93;1716534;83;21045;-61
2021/12/17 00:06:29;;;;;;;12.90;6.28;;;;;;;4.95;88.10;100376.46;1716482;83;21436;-62
2021/12/17 00:08:50;;;;;;;11.63;6.08;;;;;;;4.94;88.15;100377.98;1715064;83;21049;-62
2021/12/17 00:11:21;;;;;;;14.07;6.28;;;;;;;4.93;88.12;100373.56;1716506;83;21024;-61
2021/12/17 00:13:51;;;;;;;11.05;6.15;;;;;;;4.96;88.13;100380.03;1716872;83;21441;-61
2021/12/17 00:16:25;;;;;;;11.12;6.10;;;;;;;4.96;88.10;100387.66;1716472;83;21013;-61
2021/12/17 00:19:05;;;;;;;9.98;5.90;;;;;;;4.94;88.03;100388.84;1717457;83;21063;-60
2021/12/17 00:44:13;;;;;;;9.73;4.37;;;;;;;4.90;87.07;100390.17;1689504;84;21090;-61
2021/12/17 00:49:12;;;;;;;7.78;4.30;;;;;;;4.89;86.90;100389.83;1687042;85;21098;-61
2021/12/17 00:51:59;;;;;;;9.63;4.97;;;;;;;4.88;86.89;100394.92;1662954;86;21043;-61
2021/12/17 00:54:39;;;;;;;8.83;4.45;;;;;;;4.86;86.92;100387.44;1675891;85;21011;-61
2021/12/17 00:57:23;;;;;;;6.97;3.60;;;;;;;4.87;86.82;100386.42;1673099;85;21098;-62
2021/12/17 00:59:53;;;;;;;7.05;3.70;;;;;;;4.88;86.75;100375.41;1648702;87;21056;-61
2021/12/17 01:02:27;;;;;;;6.47;3.33;;;;;;;4.86;86.48;100379.30;1689564;85;21072;-61
2021/12/17 01:05:01;;;;;;;7.08;3.50;;;;;;;4.81;86.33;100378.42;1673663;85;21531;-62
2021/12/17 01:07:33;;;;;;;6.20;3.15;;;;;;;4.80;86.43;100378.08;1689624;85;21113;-60
2021/12/17 01:10:06;;;;;;;6.20;3.25;;;;;;;4.80;86.35;100365.02;1713666;83;21114;-60
2021/12/17 01:12:38;;;;;;;7.33;2.83;;;;;;;4.81;86.47;100375.70;1706696;84;21036;-61
2021/12/17 01:15:11;;;;;;;7.45;3.60;;;;;;;4.79;86.46;100365.52;1706412;84;21087;-61
2021/12/17 01:17:45;;;;;;;6.08;3.08;;;;;;;4.77;86.58;100362.97;1689826;84;21509;-62
2021/12/17 01:23:09;;;;;;;10.00;4.00;;;;;;;4.81;86.44;100362.14;1714982;84;21039;-59
2021/12/17 01:25:44;;;;;;;10.18;3.65;;;;;;;4.76;86.34;100357.70;1712650;83;21791;-60
2021/12/17 01:37:57;;;;;;;5.80;3.20;;;;;;;4.74;86.27;100344.29;1714403;84;21434;-61
2021/12/17 01:40:39;;;;;;;8.38;3.55;;;;;;;4.75;86.40;100350.06;1710415;84;20996;-62
2021/12/17 01:42:09;;;;;;;5.78;3.02;;;;;;;4.75;86.43;100345.99;1709037;84;21600;-61
2021/12/17 01:44:42;;;;;;;6.45;2.92;;;;;;;4.76;86.39;100340.06;1712675;84;21560;-61
2021/12/17 01:47:11;;;;;;;6.33;3.02;;;;;;;4.75;86.32;100343.28;1712478;84;21311;-60
2021/12/17 02:00:51;;;;;;;6.72;3.25;;;;;;;4.65;86.10;100331.69;1704353;84;21539;-61
2021/12/17 02:03:20;;;;;;;6.95;3.00;;;;;;;4.61;86.03;100328.11;1704033;84;21155;-62
2021/12/17 02:05:49;;;;;;;7.03;2.98;;;;;;;4.62;86.15;100326.59;1704051;84;21184;-61
2021/12/17 02:08:20;;;;;;;6.37;3.20;;;;;;;4.65;86.22;100339.83;1704150;84;21567;-61
2021/12/17 02:11:22;;;;;;;5.65;3.12;;;;;;;4.68;86.31;100335.44;1704100;84;21072;-61
2021/12/17 02:32:25;;;;;;;6.37;2.27;;;;;;;4.64;85.53;100321.84;1695108;84;20204;-62
2021/12/17 02:35:13;;;;;;;5.28;2.10;;;;;;;4.64;85.52;100326.42;1703988;84;21067;-61
2021/12/17 02:37:30;;;;;;;5.35;2.10;;;;;;;4.63;85.62;100321.50;1702071;84;21525;-60
2021/12/17 02:45:32;;;;;;;4.83;2.27;;;;;;;4.52;85.47;100313.61;1704214;84;21502;-60
2021/12/17 02:48:15;;;;;;;4.40;2.17;;;;;;;4.49;85.62;100314.44;1704207;84;21083;-61
2021/12/17 02:50:53;;;;;;;6.25;2.22;;;;;;;4.47;85.80;100311.89;1715990;83;21051;-62
2021/12/17 02:53:23;;;;;;;4.05;2.47;;;;;;;4.46;85.83;100318.32;1728535;82;20998;-61
2021/12/17 02:55:58;;;;;;;3.98;2.20;;;;;;;4.47;85.89;100320.02;1700371;83;21070;-60
2021/12/17 02:58:28;;;;;;;4.40;2.40;;;;;;;4.48;85.74;100316.80;1728739;83;21458;-61
2021/12/17 03:00:58;;;;;;;5.87;2.35;;;;;;;4.45;85.69;100323.41;1728819;83;21106;-60
2021/12/17 03:03:30;;;;;;;3.65;2.20;;;;;;;4.43;85.81;100319.49;1728960;83;21058;-60
2021/12/17 03:05:58;;;;;;;3.83;1.90;;;;;;;4.43;85.70;100318.14;1728883;83;21050;-61
2021/12/17 03:08:29;;;;;;;3.87;1.85;;;;;;;4.42;85.75;100310.16;1728928;83;21062;-61
2021/12/17 03:10:58;;;;;;;4.17;2.30;;;;;;;4.41;85.82;100304.39;1701016;83;22018;-62
2021/12/17 03:13:31;;;;;;;3.52;2.00;;;;;;;4.40;85.90;100306.76;1726456;83;21548;-62
2021/12/17 03:23:50;;;;;;;6.87;2.47;;;;;;;4.30;86.29;100310.94;1726525;83;21074;-62
2021/12/17 03:26:23;;;;;;;6.55;2.45;;;;;;;4.31;86.40;100307.72;1726093;83;21025;-61
2021/12/17 03:28:55;;;;;;;4.00;1.90;;;;;;;4.33;86.48;100303.84;1726365;83;21050;-60
2021/12/17 03:31:24;;;;;;;4.97;2.02;;;;;;;4.37;86.56;100297.58;1726593;83;21062;-61
2021/12/17 03:34:04;;;;;;;5.92;2.50;;;;;;;4.37;86.48;100300.30;1729122;83;21074;-62
2021/12/17 03:36:28;;;;;;;4.12;2.25;;;;;;;4.35;86.48;100297.74;1727910;83;21184;-61
2021/12/17 03:38:57;;;;;;;5.78;2.30;;;;;;;4.35;86.45;100296.89;1728899;83;21039;-62
2021/12/17 03:41:36;;;;;;;6.53;2.20;;;;;;;4.32;86.32;100298.06;1728889;83;21401;-61
2021/12/17 03:44:02;;;;;;;5.87;2.22;;;;;;;4.33;86.40;100298.41;1728933;83;21454;-62
2021/12/17 03:46:38;;;;;;;3.75;2.15;;;;;;;4.34;86.51;100296.55;1693810;83;21470;-62
2021/12/17 03:49:07;;;;;;;6.53;2.10;;;;;;;4.33;86.54;100291.63;1729085;83;21505;-62
2021/12/17 03:51:47;;;;;;;4.78;2.25;;;;;;;4.31;86.45;100288.73;1702347;83;21052;-61
2021/12/17 03:54:07;;;;;;;5.37;2.45;;;;;;;4.30;86.51;100284.32;1703239;84;21618;-62
2021/12/17 03:56:36;;;;;;;6.08;2.40;;;;;;;4.28;86.48;100284.98;1704109;84;21211;-61
2021/12/17 03:59:10;;;;;;;6.35;2.52;;;;;;;4.29;86.60;100290.75;1703966;84;21067;-63
2021/12/17 04:01:36;;;;;;;5.72;2.30;;;;;;;4.29;86.58;100292.96;1704062;84;21190;-62
2021/12/17 04:04:06;;;;;;;6.25;2.33;;;;;;;4.34;86.56;100289.77;1654508;85;21079;-62
2021/12/17 04:06:36;;;;;;;4.87;2.10;;;;;;;4.38;86.56;100283.01;1632320;87;21112;-61
2021/12/17 04:09:08;;;;;;;3.70;2.00;;;;;;;4.37;86.40;100276.73;1654563;87;21035;-63
2021/12/17 04:11:42;;;;;;;9.20;2.52;;;;;;;4.35;86.28;100273.84;1645547;87;22347;-63
2021/12/17 04:14:12;;;;;;;5.08;1.95;;;;;;;4.32;86.11;100276.88;1632649;88;21299;-62
2021/12/17 04:17:02;;;;;;;7.03;2.42;;;;;;;4.34;85.95;100278.92;1632047;88;21493;-61
2021/12/17 04:19:28;;;;;;;6.87;2.12;;;;;;;4.31;85.77;100277.37;1632951;86;21449;-61
2021/12/17 04:21:57;;;;;;;7.47;2.72;;;;;;;4.32;85.80;100282.30;1650737;85;21055;-62
2021/12/17 04:24:27;;;;;;;6.58;2.98;;;;;;;4.30;85.66;100287.88;1682406;85;21006;-62
2021/12/17 04:26:57;;;;;;;7.17;2.92;;;;;;;4.28;85.45;100293.97;1689216;84;21442;-62
2021/12/17 04:29:26;;;;;;;7.17;2.65;;;;;;;4.26;85.34;100280.23;1682593;85;21027;-60
2021/12/17 04:31:57;;;;;;;8.83;3.12;;;;;;;4.28;85.44;100275.50;1693154;84;20999;-60
2021/12/17 04:34:28;;;;;;;5.95;2.62;;;;;;;4.29;85.40;100279.41;1704361;84;21577;-61
2021/12/17 04:36:57;;;;;;;5.58;2.47;;;;;;;4.28;85.27;100275.50;1704116;84;21032;-60
2021/12/17 04:39:28;;;;;;;5.90;2.98;;;;;;;4.29;85.30;100278.55;1703415;84;21081;-61
2021/12/17 04:42:00;;;;;;;7.33;2.42;;;;;;;4.28;85.23;100279.56;1694429;84;21137;-61
2021/12/17 04:44:33;;;;;;;5.67;2.27;;;;;;;4.27;85.26;100282.78;1682499;85;21014;-61
2021/12/17 04:57:59;;;;;;;4.03;2.17;;;;;;;4.34;84.67;100277.56;1694931;85;21193;-61
2021/12/17 05:00:30;;;;;;;7.83;2.40;;;;;;;4.32;84.50;100274.16;1662710;86;21078;-61
2021/12/17 05:03:04;;;;;;;8.63;3.52;;;;;;;4.29;84.31;100273.12;1720876;83;21602;-61
2021/12/17 05:05:35;;;;;;;8.25;2.92;;;;;;;4.26;84.32;100272.09;1719338;83;21153;-61
2021/12/17 05:08:12;;;;;;;7.12;3.37;;;;;;;4.21;84.22;100276.64;1718397;83;21059;-62
2021/12/17 05:19:43;;;;;;;;;;;;;;;4.22;84.37;100274.27;1723850;83;21153;-60
2021/12/17 05:21:17;;;;;;;4.47;2.17;;;;;;;4.23;84.46;100275.13;1706019;83;20547;-61
2021/12/17 05:23:51;;;;;;;8.45;3.45;;;;;;;4.24;84.57;100264.11;1721585;83;21451;-61
2021/12/17 05:26:21;;;;;;;8.93;3.20;;;;;;;4.27;84.41;100264.30;1691446;85;21482;-62
2021/12/17 05:28:53;;;;;;;12.45;3.33;;;;;;;4.30;84.23;100270.76;1694658;85;21589;-63
2021/12/17 05:31:25;;;;;;;7.10;3.45;;;;;;;4.27;84.27;100264.30;1661939;86;21523;-62
2021/12/17 05:33:56;;;;;;;7.35;2.85;;;;;;;4.26;84.36;100259.38;1727213;83;21878;-61
2021/12/17 05:36:27;;;;;;;8.65;3.52;;;;;;;4.27;84.32;100268.37;1726350;82;21127;-62
2021/12/17 05:38:57;;;;;;;7.60;3.22;;;;;;;4.27;84.07;100268.37;1725506;83;21043;-62
2021/12/17 05:41:27;;;;;;;7.20;2.87;;;;;;;4.26;84.06;100262.09;1726826;83;21042;-62
2021/12/17 05:44:01;;;;;;;7.72;2.90;;;;;;;4.27;84.05;100261.59;1724090;83;21134;-61
2021/12/17 05:46:49;;;;;;;9.40;3.00;;;;;;;4.26;84.06;100261.24;1720715;83;21047;-62
2021/12/17 05:49:22;;;;;;;9.28;2.92;;;;;;;4.23;84.08;100258.34;1719232;83;21103;-61
2021/12/17 05:51:50;;;;;;;10.45;3.85;;;;;;;4.24;83.99;100259.20;1723208;83;21137;-61
2021/12/17 05:54:19;;;;;;;8.93;3.42;;;;;;;4.25;83.92;100255.47;1726490;83;21050;-63
2021/12/17 05:56:48;;;;;;;5.95;3.33;;;;;;;4.26;83.98;100261.24;1726665;83;21438;-63
2021/12/17 05:59:16;;;;;;;7.65;3.37;;;;;;;4.24;83.73;100264.11;1726200;83;21038;-62
2021/12/17 06:01:45;;;;;;;8.35;3.12;;;;;;;4.24;83.73;100257.84;1726353;83;21007;-62
2021/12/17 06:04:14;;;;;;;11.28;4.20;;;;;;;4.24;83.70;100259.20;1726317;83;21396;-63
2021/12/17 06:06:55;;;;;;;8.48;3.27;;;;;;;4.26;83.76;100263.95;1726129;83;21010;-62
2021/12/17 06:09:25;;;;;;;8.48;3.62;;;;;;;4.27;83.85;100258.88;1726414;83;20995;-62
2021/12/17 06:11:54;;;;;;;9.08;3.35;;;;;;;4.27;83.86;100261.59;1728336;83;21078;-62
2021/12/17 06:14:25;;;;;;;6.05;2.87;;;;;;;4.28;83.82;100256.52;1726666;83;21031;-62
2021/12/17 06:16:54;;;;;;;6.67;2.30;;;;;;;4.31;83.86;100268.39;1726479;83;21454;-62
2021/12/17 06:19:27;;;;;;;8.08;2.60;;;;;;;4.31;83.56;100265.17;1725996;83;21460;-63
2021/12/17 06:21:58;;;;;;;7.65;2.67;;;;;;;4.31;83.62;100267.89;1726198;83;21094;-61
2021/12/17 06:24:27;;;;;;;10.28;3.00;;;;;;;4.32;83.62;100270.09;1726350;83;21031;-62
2021/12/17 06:26:56;;;;;;;7.95;2.58;;;;;;;4.31;83.47;100264.33;1726348;83;21462;-62
2021/12/17 06:29:25;;;;;;;7.75;2.47;;;;;;;4.33;83.49;100263.66;1726324;83;21482;-62
2021/12/17 06:31:56;;;;;;;7.83;3.00;;;;;;;4.33;83.38;100269.08;1726043;83;21023;-62
2021/12/17 06:34:24;;;;;;;8.08;2.50;;;;;;;4.30;83.32;100265.34;1728680;83;21169;-62
2021/12/17 06:36:53;;;;;;;8.00;3.20;;;;;;;4.27;83.31;100266.51;1728830;83;21101;-62
2021/12/17 06:39:24;;;;;;;8.35;3.50;;;;;;;4.30;83.33;100263.98;1728650;83;21495;-62
2021/12/17 06:41:53;;;;;;;9.13;3.47;;;;;;;4.33;83.35;100259.59;1729030;83;21488;-63
2021/12/17 06:44:24;;;;;;;9.68;3.80;;;;;;;4.36;83.45;100264.69;1728924;83;21071;-63
2021/12/17 06:47:05;;;;;;;12.82;3.58;;;;;;;4.34;83.28;100264.85;1728826;83;21085;-62
2021/12/17 06:55:07;;;;;;;8.13;2.72;;;;;;;4.35;82.98;100271.13;1724937;83;21434;-63
2021/12/17 07:01:13;;;;;;;8.65;3.12;;;;;;;4.27;83.23;100267.86;1726888;83;20992;-62
2021/12/17 07:22:43;;;;;;;8.30;2.72;;;;;;;4.41;83.11;100274.55;1727399;83;21055;-63
2021/12/17 07:33:20;;;;;;;5.10;1.70;;;;;;;4.48;82.75;100270.18;1695288;83;21461;-65
2021/12/17 07:36:09;;;;;;;5.72;2.72;;;;;;;4.51;82.65;100277.14;1726033;82;21034;-63
2021/12/17 07:41:07;;;;;;;6.92;2.92;;;;;;;4.49;82.58;100280.02;1723763;83;21054;-63
2021/12/17 07:43:40;;;;;;;17.55;3.77;;;;;;;4.44;82.72;100276.94;1726758;83;21094;-65
2021/12/17 07:46:14;;;;;;;4.67;1.82;;;;;;;4.42;82.80;100276.25;1726742;83;21062;-65
2021/12/17 07:48:43;;;;;;;5.92;2.58;;;;;;;4.41;83.14;100274.55;1726917;83;21427;-65
2021/12/17 07:51:14;;;;;;;5.58;2.50;;;;;;;4.41;83.37;100271.84;1724556;83;21118;-65
2021/12/17 07:53:46;;;;;;;7.28;3.10;;;;;;;4.37;83.53;100265.03;1673981;85;21039;-64
2021/12/17 07:56:20;;;;;;;11.10;4.72;;;;;;;4.29;83.83;100273.12;1692010;84;21015;-63
2021/12/17 07:58:49;;;;;;;12.78;6.20;;;;;;;4.30;84.21;100273.47;1705445;84;21165;-64
2021/12/17 08:01:19;;;;;;;10.78;4.80;;;;;;;4.29;84.56;100275.33;1675143;85;21566;-64
2021/12/17 08:03:48;;;;;;;7.20;3.20;;;;;;;4.26;84.76;100273.45;1672942;86;21467;-64
2021/12/17 08:06:36;;;;;;;8.68;3.50;;;;;;;4.20;84.86;100272.23;1688528;83;21055;-64
2021/12/17 08:09:14;;;;;;;9.60;4.12;;;;;;;4.13;85.23;100280.15;1689493;85;21208;-64
2021/12/17 08:11:45;;;;;;;9.58;3.55;;;;;;;4.12;85.47;100266.75;1680023;85;21030;-64
2021/12/17 08:14:17;;;;;;;8.65;3.80;;;;;;;4.13;85.72;100276.08;1677600;85;21031;-63
2021/12/17 08:17:00;;;;;;;10.03;4.12;;;;;;;4.12;86.03;100264.89;1692392;85;21504;-62
2021/12/17 08:25:14;;;;;;;11.90;3.60;;;;;;;4.08;86.46;100264.86;1692242;84;21426;-63
2021/12/17 08:27:50;;;;;;;9.70;3.00;;;;;;;4.12;86.61;100262.69;1691888;84;21377;-66
2021/12/17 08:32:55;;;;;;;9.80;4.92;;;;;;;4.12;86.74;100259.47;1692243;85;21461;-65
2021/12/17 08:35:24;;;;;;;15.98;5.40;;;;;;;4.13;86.82;100261.67;1677560;85;21090;-62
2021/12/17 08:37:55;;;;;;;10.30;4.83;;;;;;;4.17;86.63;100266.27;1692357;85;21454;-64
2021/12/17 08:40:26;;;;;;;11.00;4.00;;;;;;;4.17;86.56;100265.77;1677602;85;21588;-62
2021/12/17 08:42:57;;;;;;;15.23;6.40;;;;;;;4.24;86.70;100264.63;1692328;84;21109;-63
2021/12/17 08:45:27;;;;;;;11.88;3.85;;;;;;;4.27;86.66;100265.66;1677502;85;21478;-64
2021/12/17 08:47:59;;;;;;;11.08;3.47;;;;;;;4.24;86.46;100257.34;1691411;84;21026;-63
2021/12/17 08:50:45;;;;;;;7.17;3.25;;;;;;;4.24;86.52;100259.20;1692294;84;21545;-64
2021/12/17 08:53:16;;;;;;;5.28;2.42;;;;;;;4.29;86.62;100263.13;1687802;84;21214;-63
2021/12/17 08:55:46;;;;;;;7.12;2.40;;;;;;;4.31;86.29;100254.83;1670103;84;21083;-64
2021/12/17 08:58:15;;;;;;;5.60;2.60;;;;;;;4.32;86.27;100260.09;1694657;84;21040;-65
2021/12/17 09:00:47;;;;;;;7.45;3.20;;;;;;;4.34;86.07;100255.86;1678279;85;21127;-65
2021/12/17 09:03:19;;;;;;;5.53;2.95;;;;;;;4.36;86.10;100251.98;1702218;84;21028;-64
2021/12/17 09:06:00;;;;;;;9.18;3.27;;;;;;;4.38;85.91;100254.53;1702929;84;21111;-64
2021/12/17 09:08:31;;;;;;;6.60;2.65;;;;;;;4.38;85.78;100251.31;1686803;84;21047;-65
2021/12/17 09:11:01;;;;;;;8.15;3.35;;;;;;;4.39;85.64;100243.52;1661250;86;21047;-64
2021/12/17 09:13:41;;;;;;;10.98;3.55;;;;;;;4.40;85.82;100250.64;1642840;86;21545;-64
2021/12/17 09:16:10;;;;;;;9.03;2.20;;;;;;;4.44;85.53;100243.03;1643055;86;21031;-63
2021/12/17 09:18:40;;;;;;;8.65;2.00;;;;;;;4.50;84.82;100251.88;1684092;85;21301;-62
2021/12/17 09:21:30;;;;;;;9.80;2.52;;;;;;;4.53;84.90;100242.56;1660723;85;21677;-64
2021/12/17 09:24:00;;;;;;;6.87;2.05;;;;;;;4.58;85.15;100241.09;1700875;84;21599;-66
2021/12/17 09:26:33;;;;;;;7.42;2.30;;;;;;;4.62;84.92;100243.83;1703157;84;21029;-64
2021/12/17 09:29:04;;;;;;;6.40;2.90;;;;;;;4.65;84.64;100241.30;1703199;84;21044;-65
2021/12/17 09:31:32;;;;;;;6.72;2.67;;;;;;;4.63;84.06;100237.39;1703261;84;21064;-65
2021/12/17 09:34:03;;;;;;;6.83;2.67;;;;;;;4.59;83.87;100237.88;1703234;84;21103;-65
2021/12/17 09:36:33;;;;;;;5.87;2.10;;;;;;;4.56;83.58;100236.34;1682984;84;21055;-66
2021/12/17 09:39:02;;;;;;;4.97;2.45;;;;;;;4.52;83.55;100228.15;1661379;86;21138;-65
2021/12/17 09:41:31;;;;;;;14.18;4.20;;;;;;;4.52;83.55;100235.44;1698674;84;21083;-63
2021/12/17 09:44:00;;;;;;;7.40;2.22;;;;;;;4.54;83.59;100223.41;1698768;84;21561;-64
2021/12/17 09:46:30;;;;;;;6.65;2.50;;;;;;;4.53;83.44;100224.93;1698947;84;21464;-63
2021/12/17 09:48:59;;;;;;;6.33;1.72;;;;;;;4.53;83.23;100223.58;1698710;84;21048;-68
2021/12/17 09:51:28;;;;;;;6.15;2.45;;;;;;;4.52;82.88;100217.80;1698586;84;21064;-66
2021/12/17 09:53:58;;;;;;;5.75;2.15;;;;;;;4.48;82.84;100224.06;1698690;84;21523;-65
2021/12/17 09:56:29;;;;;;;6.97;2.22;;;;;;;4.49;82.87;100225.77;1692721;84;21058;-66
2021/12/17 09:59:01;;;;;;;8.25;2.40;;;;;;;4.52;82.87;100218.66;1728900;83;21070;-68
2021/12/17 10:01:31;;;;;;;8.35;2.47;;;;;;;4.53;83.00;100217.64;1728999;83;21133;-66
2021/12/17 10:04:21;;;;;;;4.25;2.30;;;;;;;4.56;83.15;100220.56;1700705;83;21190;-68
2021/12/17 10:06:50;;;;;;;5.65;2.05;;;;;;;4.57;83.00;100218.20;1727577;83;21070;-67
2021/12/17 10:09:19;;;;;;;6.35;2.35;;;;;;;4.58;82.95;100208.53;1728930;83;21123;-67
2021/12/17 10:12:06;;;;;;;10.05;2.80;;;;;;;4.61;82.95;100204.14;1728793;83;21173;-67
2021/12/17 10:14:35;;;;;;;6.53;2.33;;;;;;;4.65;82.94;100214.16;1728663;83;21045;-66
2021/12/17 10:17:13;;;;;;;6.12;2.65;;;;;;;4.68;82.59;100211.96;1726558;83;21430;-66
2021/12/17 10:19:53;;;;;;;7.58;2.30;;;;;;;4.68;81.62;100211.96;1726386;83;21141;-67
2021/12/17 10:22:22;;;;;;;6.87;2.42;;;;;;;4.69;81.75;100212.81;1726425;83;21027;-66
2021/12/17 10:25:02;;;;;;;7.35;3.00;;;;;;;4.70;81.83;100203.66;1726008;83;21185;-66
2021/12/17 10:27:34;;;;;;;7.45;2.70;;;;;;;4.72;81.58;100205.70;1726418;83;21078;-64
2021/12/17 10:30:14;;;;;;;5.97;2.58;;;;;;;4.75;81.37;100205.37;1726494;83;21138;-65
2021/12/17 10:32:51;;;;;;;7.10;2.37;;;;;;;4.73;81.13;100193.31;1725397;82;21508;-67
2021/12/17 10:35:27;;;;;;;8.05;1.75;;;;;;;4.73;80.94;100192.47;1726514;83;21126;-64
2021/12/17 10:38:00;;;;;;;3.50;1.70;;;;;;;4.74;80.64;100200.95;1728968;83;21493;-64
2021/12/17 10:40:38;;;;;;;10.20;2.17;;;;;;;4.73;80.47;100200.10;1728918;83;21042;-62
2021/12/17 10:43:17;;;;;;;4.22;1.70;;;;;;;4.77;80.50;100195.20;1727481;83;21039;-64
2021/12/17 10:45:57;;;;;;;;;;;;;;;4.80;80.12;100198.09;1728839;83;21209;-64
2021/12/17 10:48:34;;;;;;;4.90;1.57;;;;;;;4.78;79.69;100194.18;1725841;83;20461;-64
2021/12/17 10:54:20;;;;;;;6.17;1.55;;;;;;;4.82;79.70;100193.34;1707008;83;21095;-62
2021/12/17 10:56:51;;;;;;;21.00;10.45;;;;;;;4.86;79.49;100187.41;1668950;84;21147;-65
2021/12/17 10:59:28;;;;;;;6.53;3.37;;;;;;;4.89;79.07;100184.37;1661648;86;21099;-66
2021/12/17 11:02:04;;;;;;;5.87;2.55;;;;;;;4.90;78.75;100183.35;1641083;86;21225;-65
2021/12/17 11:04:37;;;;;;;6.22;2.92;;;;;;;4.91;78.63;100182.34;1661510;86;21012;-64
2021/12/17 11:07:13;;;;;;;6.00;2.42;;;;;;;4.91;78.16;100184.20;1661386;86;21023;-65
2021/12/17 11:09:57;;;;;;;11.88;4.55;;;;;;;4.89;77.93;100183.01;1668681;85;21551;-62
2021/12/17 11:12:34;;;;;;;7.35;2.92;;;;;;;4.91;77.74;100185.56;1679378;85;21541;-63
2021/12/17 11:15:19;;;;;;;8.63;3.20;;;;;;;4.90;77.85;100187.93;1679786;85;21081;-65
2021/12/17 11:18:00;;;;;;;7.22;2.70;;;;;;;4.91;77.90;100186.91;1686918;85;21043;-67
2021/12/17 11:20:36;;;;;;;3.62;1.37;;;;;;;4.91;77.94;100184.20;1686778;85;21173;-65
2021/12/17 11:23:11;;;;;;;3.75;0.95;;;;;;;4.92;77.34;100205.75;1686593;85;21030;-65
2021/12/17 11:25:42;;;;;;;3.05;1.05;;;;;;;4.84;76.11;100204.88;1686704;85;21066;-66
2021/12/17 11:28:12;;;;;;;3.58;0.88;;;;;;;4.64;76.68;100205.16;1686585;85;21019;-70
2021/12/17 11:30:44;;;;;;;2.52;1.15;;;;;;;4.44;77.07;100211.84;1686513;85;21090;-66
2021/12/17 11:33:14;;;;;;;4.37;1.07;;;;;;;4.25;77.87;100193.11;1686630;85;21221;-69
2021/12/17 11:35:46;;;;;;;7.33;1.30;;;;;;;4.11;78.69;100196.77;1665970;84;21088;-68
2021/12/17 11:38:47;;;;;;;4.30;1.10;;;;;;;3.99;79.41;100198.56;1706319;83;21118;-67
2021/12/17 11:41:22;;;;;;;4.22;1.17;;;;;;;3.91;80.23;100199.36;1702613;83;21571;-66
2021/12/17 11:44:00;;;;;;;4.85;1.40;;;;;;;3.92;81.00;100194.28;1688627;84;21062;-69
2021/12/17 11:46:33;;;;;;;6.83;4.05;;;;;;;3.84;81.48;100207.75;1688829;84;21040;-69
2021/12/17 11:49:17;;;;;;;3.35;1.67;;;;;;;3.75;81.90;100205.48;1690069;84;21047;-67
2021/12/17 11:51:54;;;;;;;5.33;1.47;;;;;;;3.72;82.45;100209.02;1703399;84;21059;-67
2021/12/17 11:54:33;;;;;;;4.97;2.20;;;;;;;3.67;82.75;100201.88;1721713;83;21642;-67
2021/12/17 11:57:17;;;;;;;8.25;2.90;;;;;;;3.67;83.23;100203.23;1690354;85;21636;-67
2021/12/17 11:59:45;;;;;;;11.85;5.05;;;;;;;3.67;83.78;100205.44;1700599;83;21110;-64
2021/12/17 12:02:21;;;;;;;12.78;5.65;;;;;;;3.70;84.37;100197.48;1726288;83;21134;-65
2021/12/17 12:04:53;;;;;;;13.08;5.62;;;;;;;3.71;84.61;100204.11;1726549;83;21071;-65
2021/12/17 12:07:30;;;;;;;12.85;5.35;;;;;;;3.74;84.99;100206.50;1726112;83;21073;-65
2021/12/17 12:10:15;;;;;;;12.55;7.17;;;;;;;3.79;85.24;100204.66;1726072;83;21070;-66
2021/12/17 12:12:50;;;;;;;11.25;4.90;;;;;;;3.81;85.58;100206.20;1726201;83;21074;-67
2021/12/17 12:15:31;;;;;;;12.43;4.90;;;;;;;3.82;85.92;100208.41;1724139;83;21524;-66
2021/12/17 12:18:17;;;;;;;13.08;6.12;;;;;;;3.82;86.06;100204.34;1723548;83;21530;-66
2021/12/17 12:20:51;;;;;;;7.55;2.70;;;;;;;3.75;85.95;100198.72;1688760;85;21158;-67
2021/12/17 12:23:31;;;;;;;7.67;2.45;;;;;;;3.74;86.10;100193.45;1689066;85;21219;-65
2021/12/17 12:26:08;;;;;;;6.50;2.40;;;;;;;3.78;86.28;100198.91;1688624;84;21087;-65
2021/12/17 12:28:53;;;;;;;5.28;2.45;;;;;;;3.82;86.05;100197.58;1675050;84;21102;-65
2021/12/17 12:31:38;;;;;;;7.60;1.75;;;;;;;3.85;86.13;100203.18;1661481;86;21019;-66
2021/12/17 12:34:16;;;;;;;5.47;2.30;;;;;;;3.86;85.56;100203.52;1690981;85;21047;-65
2021/12/17 12:37:10;;;;;;;5.05;2.15;;;;;;;3.88;85.25;100202.86;1599027;88;21140;-65
2021/12/17 12:39:53;;;;;;;8.78;2.42;;;;;;;3.88;85.01;100199.65;1596209;90;21272;-64
2021/12/17 12:42:26;;;;;;;5.75;2.00;;;;;;;3.87;84.77;100203.36;1596284;90;21190;-65
2021/12/17 12:45:05;;;;;;;4.00;1.62;;;;;;;3.89;84.77;100206.77;1596503;89;21080;-65
2021/12/17 12:47:55;;;;;;;3.47;1.60;;;;;;;3.94;84.80;100208.52;1645406;87;21785;-66
2021/12/17 12:50:46;;;;;;;5.87;2.00;;;;;;;3.98;84.80;100203.13;1653578;87;21059;-66
2021/12/17 12:53:16;;;;;;;5.20;2.10;;;;;;;4.00;84.58;100209.75;1615437;88;21093;-66
2021/12/17 12:55:47;;;;;;;6.97;2.27;;;;;;;3.98;84.24;100212.62;1620667;86;21035;-65
2021/12/17 12:58:21;;;;;;;4.87;2.33;;;;;;;3.95;83.83;100207.52;1667704;86;21083;-65
2021/12/17 13:00:54;;;;;;;11.65;2.60;;;;;;;3.98;84.02;100212.62;1667552;86;21034;-65
2021/12/17 13:03:26;;;;;;;10.03;2.50;;;;;;;4.00;83.63;100217.38;1667586;86;22070;-65
2021/12/17 13:05:59;;;;;;;3.90;1.90;;;;;;;3.99;83.57;100219.73;1662698;84;21095;-64
2021/12/17 13:08:30;;;;;;;7.28;2.70;;;;;;;3.98;83.86;100219.39;1630068;88;21101;-65
2021/12/17 13:11:02;;;;;;;5.08;1.98;;;;;;;4.20;85.49;100226.13;1665269;86;21027;-65
2021/12/17 13:13:40;;;;;;;5.00;2.67;;;;;;;4.27;84.82;100230.41;1665034;86;21066;-64
2021/12/17 13:16:15;;;;;;;5.92;2.17;;;;;;;4.25;84.30;100232.42;1664577;86;21185;-65
2021/12/17 13:21:47;;;;;;;6.00;2.85;;;;;;;4.26;84.43;100233.63;1665402;86;21170;-66
2021/12/17 13:24:20;;;;;;;7.17;2.70;;;;;;;4.22;84.36;100232.24;1666897;85;21058;-64
2021/12/17 13:26:53;;;;;;;5.40;2.70;;;;;;;4.24;84.26;100238.35;1686266;83;21076;-65
2021/12/17 13:29:35;;;;;;;9.20;3.40;;;;;;;4.23;84.07;100235.30;1689337;85;21069;-64
2021/12/17 13:32:11;;;;;;;10.00;3.42;;;;;;;4.22;84.09;100235.45;1683295;84;21384;-63
2021/12/17 13:34:53;;;;;;;9.40;3.62;;;;;;;4.19;83.89;100230.36;1665327;85;21115;-64
2021/12/17 13:37:26;;;;;;;8.60;3.58;;;;;;;4.16;83.66;100238.31;1665252;85;21094;-64
2021/12/17 13:40:09;;;;;;;16.62;6.53;;;;;;;4.10;83.66;100238.45;1665560;86;21110;-64
2021/12/17 13:42:46;;;;;;;12.37;4.22;;;;;;;4.11;83.73;100224.38;1665432;85;21126;-65
2021/12/17 13:45:16;;;;;;;8.83;4.83;;;;;;;4.12;83.91;100233.71;1674023;85;21002;-66
2021/12/17 13:47:47;;;;;;;16.07;6.87;;;;;;;4.13;84.07;100231.34;1689325;85;21716;-65
2021/12/17 13:50:35;;;;;;;14.93;5.78;;;;;;;4.15;84.19;100228.47;1689424;84;21533;-64
2021/12/17 13:53:15;;;;;;;15.32;7.25;;;;;;;4.10;83.78;100224.89;1680385;84;21490;-65
2021/12/17 13:55:48;;;;;;;17.65;6.45;;;;;;;4.07;83.54;100225.72;1676286;84;21514;-66
2021/12/17 13:58:24;;;;;;;15.43;6.17;;;;;;;4.05;83.74;100225.88;1679368;85;21065;-67
2021/12/17 14:00:57;;;;;;;13.05;5.90;;;;;;;4.04;83.70;100231.45;1679358;85;21466;-65
2021/12/17 14:03:33;;;;;;;12.15;4.70;;;;;;;4.04;83.75;100231.45;1679333;84;21663;-67
2021/12/17 14:06:16;;;;;;;12.60;4.15;;;;;;;4.04;83.71;100228.75;1666087;85;21243;-66
2021/12/17 14:08:40;;;;;;;12.60;4.45;;;;;;;4.04;83.58;100231.45;1641106;87;21137;-64
2021/12/17 14:11:24;;;;;;;12.30;4.30;;;;;;;4.04;83.45;100230.95;1674602;84;21165;-64
2021/12/17 14:13:55;;;;;;;12.43;5.33;;;;;;;4.06;83.43;100234.86;1670514;86;21106;-64
2021/12/17 14:16:31;;;;;;;14.85;4.78;;;;;;;4.04;83.37;100232.30;1674796;85;21177;-64
2021/12/17 14:19:01;;;;;;;8.20;3.27;;;;;;;4.04;83.45;100233.66;1674403;84;21102;-66
2021/12/17 14:21:33;;;;;;;6.83;2.52;;;;;;;4.07;83.30;100237.41;1674368;84;21094;-66
2021/12/17 14:24:02;;;;;;;4.37;1.82;;;;;;;4.08;82.58;100238.27;1676657;84;21066;-65
2021/12/17 14:26:33;;;;;;;4.72;1.87;;;;;;;4.09;82.08;100235.89;1698686;84;21599;-64
2021/12/17 14:29:11;;;;;;;4.92;1.70;;;;;;;4.09;81.75;100235.39;1698601;84;21152;-63
2021/12/17 14:31:42;;;;;;;6.50;2.25;;;;;;;4.10;81.49;100238.45;1698735;84;21065;-63
2021/12/17 14:34:17;;;;;;;4.87;1.62;;;;;;;4.10;81.31;100234.38;1698811;84;21085;-64